sensor_id;sensor_type;location;lat;lon;timestamp;temperature;humidity
72320;SHT30;60269;52.502;16.732;2022-08-19T00:02:42;22.66;72.13
72320;SHT30;60269;52.502;16.732;2022-08-19T00:06:20;22.63;72.28
72320;SHT30;60269;52.502;16.732;2022-08-19T00:10:15;22.60;72.45
72320;SHT30;60269;52.502;16.732;2022-08-19T00:13:54;22.57;72.57
72320;SHT30;60269;52.502;16.732;2022-08-19T00:17:53;22.56;72.70
72320;SHT30;60269;52.502;16.732;2022-08-19T00:21:31;22.55;73.04
72320;SHT30;60269;52.502;16.732;2022-08-19T00:25:24;22.60;72.70
72320;SHT30;60269;52.502;16.732;2022-08-19T00:29:04;22.62;72.44
72320;SHT30;60269;52.502;16.732;2022-08-19T00:33:03;22.67;72.27
72320;SHT30;60269;52.502;16.732;2022-08-19T00:36:42;22.72;72.18
72320;SHT30;60269;52.502;16.732;2022-08-19T00:40:44;22.82;72.02
72320;SHT30;60269;52.502;16.732;2022-08-19T00:44:27;22.87;71.73
72320;SHT30;60269;52.502;16.732;2022-08-19T00:48:21;23.04;71.20
72320;SHT30;60269;52.502;16.732;2022-08-19T00:52:05;23.10;70.73
72320;SHT30;60269;52.502;16.732;2022-08-19T00:55:59;23.18;70.20
72320;SHT30;60269;52.502;16.732;2022-08-19T00:59:48;23.25;70.10
72320;SHT30;60269;52.502;16.732;2022-08-19T01:03:42;23.21;70.23
72320;SHT30;60269;52.502;16.732;2022-08-19T01:07:37;23.18;70.46
72320;SHT30;60269;52.502;16.732;2022-08-19T01:11:31;23.17;70.58
72320;SHT30;60269;52.502;16.732;2022-08-19T01:15:21;23.08;70.96
72320;SHT30;60269;52.502;16.732;2022-08-19T01:19:37;23.04;71.06
72320;SHT30;60269;52.502;16.732;2022-08-19T01:23:24;23.04;70.71
72320;SHT30;60269;52.502;16.732;2022-08-19T01:27:20;23.01;71.06
72320;SHT30;60269;52.502;16.732;2022-08-19T01:31:22;22.93;71.54
72320;SHT30;60269;52.502;16.732;2022-08-19T01:35:19;22.91;71.51
72320;SHT30;60269;52.502;16.732;2022-08-19T01:39:09;22.86;71.80
72320;SHT30;60269;52.502;16.732;2022-08-19T01:42:55;22.83;72.01
72320;SHT30;60269;52.502;16.732;2022-08-19T01:46:42;22.79;72.10
72320;SHT30;60269;52.502;16.732;2022-08-19T01:50:34;22.70;72.39
72320;SHT30;60269;52.502;16.732;2022-08-19T01:54:14;22.74;72.26
72320;SHT30;60269;52.502;16.732;2022-08-19T01:58:09;22.67;72.30
72320;SHT30;60269;52.502;16.732;2022-08-19T02:01:56;22.66;72.47
72320;SHT30;60269;52.502;16.732;2022-08-19T02:05:47;22.56;72.86
72320;SHT30;60269;52.502;16.732;2022-08-19T02:09:32;22.53;72.63
72320;SHT30;60269;52.502;16.732;2022-08-19T02:13:27;22.52;72.89
72320;SHT30;60269;52.502;16.732;2022-08-19T02:17:12;22.42;73.31
72320;SHT30;60269;52.502;16.732;2022-08-19T02:20:57;22.32;73.50
72320;SHT30;60269;52.502;16.732;2022-08-19T02:24:42;22.15;74.04
72320;SHT30;60269;52.502;16.732;2022-08-19T02:28:27;22.00;75.08
72320;SHT30;60269;52.502;16.732;2022-08-19T02:32:12;21.85;75.57
72320;SHT30;60269;52.502;16.732;2022-08-19T02:36:05;21.80;75.60
72320;SHT30;60269;52.502;16.732;2022-08-19T02:39:43;21.77;75.86
72320;SHT30;60269;52.502;16.732;2022-08-19T02:43:35;21.73;76.01
72320;SHT30;60269;52.502;16.732;2022-08-19T02:47:41;21.77;75.95
72320;SHT30;60269;52.502;16.732;2022-08-19T02:51:36;21.74;76.07
72320;SHT30;60269;52.502;16.732;2022-08-19T02:55:21;21.85;75.52
72320;SHT30;60269;52.502;16.732;2022-08-19T02:59:24;21.94;75.20
72320;SHT30;60269;52.502;16.732;2022-08-19T03:03:10;22.01;74.95
72320;SHT30;60269;52.502;16.732;2022-08-19T03:07:02;22.05;74.83
72320;SHT30;60269;52.502;16.732;2022-08-19T03:10:48;22.08;74.63
72320;SHT30;60269;52.502;16.732;2022-08-19T03:14:34;22.05;75.03
72320;SHT30;60269;52.502;16.732;2022-08-19T03:18:19;21.97;75.17
72320;SHT30;60269;52.502;16.732;2022-08-19T03:22:12;21.90;75.31
72320;SHT30;60269;52.502;16.732;2022-08-19T03:25:52;22.00;75.37
72320;SHT30;60269;52.502;16.732;2022-08-19T03:29:53;22.05;74.89
72320;SHT30;60269;52.502;16.732;2022-08-19T03:33:44;22.18;74.48
72320;SHT30;60269;52.502;16.732;2022-08-19T03:37:36;22.25;74.15
72320;SHT30;60269;52.502;16.732;2022-08-19T03:41:29;22.21;74.30
72320;SHT30;60269;52.502;16.732;2022-08-19T03:45:23;21.93;75.26
72320;SHT30;60269;52.502;16.732;2022-08-19T03:49:09;21.71;76.14
72320;SHT30;60269;52.502;16.732;2022-08-19T03:52:55;21.47;77.11
72320;SHT30;60269;52.502;16.732;2022-08-19T03:56:42;21.16;78.26
72320;SHT30;60269;52.502;16.732;2022-08-19T04:00:33;20.91;79.29
72320;SHT30;60269;52.502;16.732;2022-08-19T04:04:18;20.64;80.10
72320;SHT30;60269;52.502;16.732;2022-08-19T04:08:06;20.61;80.90
72320;SHT30;60269;52.502;16.732;2022-08-19T04:11:53;20.64;81.04
72320;SHT30;60269;52.502;16.732;2022-08-19T04:15:40;20.75;80.43
72320;SHT30;60269;52.502;16.732;2022-08-19T04:19:26;20.82;80.19
72320;SHT30;60269;52.502;16.732;2022-08-19T04:23:18;20.94;80.05
72320;SHT30;60269;52.502;16.732;2022-08-19T04:27:02;21.12;79.31
72320;SHT30;60269;52.502;16.732;2022-08-19T04:30:54;21.23;78.81
72320;SHT30;60269;52.502;16.732;2022-08-19T04:34:39;21.26;78.59
72320;SHT30;60269;52.502;16.732;2022-08-19T04:38:56;21.40;78.20
72320;SHT30;60269;52.502;16.732;2022-08-19T04:42:34;21.54;77.75
72320;SHT30;60269;52.502;16.732;2022-08-19T04:46:26;21.77;77.00
72320;SHT30;60269;52.502;16.732;2022-08-19T04:50:28;22.05;75.77
72320;SHT30;60269;52.502;16.732;2022-08-19T04:54:21;22.22;75.25
72320;SHT30;60269;52.502;16.732;2022-08-19T04:58:15;22.35;74.72
72320;SHT30;60269;52.502;16.732;2022-08-19T05:02:08;22.34;74.61
72320;SHT30;60269;52.502;16.732;2022-08-19T05:05:53;22.28;74.89
72320;SHT30;60269;52.502;16.732;2022-08-19T05:09:45;22.35;74.61
72320;SHT30;60269;52.502;16.732;2022-08-19T05:13:35;22.57;73.59
72320;SHT30;60269;52.502;16.732;2022-08-19T05:17:20;22.73;73.39
72320;SHT30;60269;52.502;16.732;2022-08-19T05:21:11;22.67;73.06
72320;SHT30;60269;52.502;16.732;2022-08-19T05:25:18;22.73;73.11
72320;SHT30;60269;52.502;16.732;2022-08-19T05:29:04;22.90;72.51
72320;SHT30;60269;52.502;16.732;2022-08-19T05:32:59;23.24;71.52
72320;SHT30;60269;52.502;16.732;2022-08-19T05:36:45;23.51;70.09
72320;SHT30;60269;52.502;16.732;2022-08-19T05:40:35;23.93;68.98
72320;SHT30;60269;52.502;16.732;2022-08-19T05:44:21;24.06;68.30
72320;SHT30;60269;52.502;16.732;2022-08-19T05:48:14;24.18;67.96
72320;SHT30;60269;52.502;16.732;2022-08-19T05:51:53;24.33;66.95
72320;SHT30;60269;52.502;16.732;2022-08-19T05:55:44;24.30;67.07
72320;SHT30;60269;52.502;16.732;2022-08-19T05:59:29;24.71;65.86
72320;SHT30;60269;52.502;16.732;2022-08-19T06:03:16;24.99;65.08
72320;SHT30;60269;52.502;16.732;2022-08-19T06:07:02;25.11;64.34
72320;SHT30;60269;52.502;16.732;2022-08-19T06:10:54;24.99;64.78
72320;SHT30;60269;52.502;16.732;2022-08-19T06:14:36;25.16;64.38
72320;SHT30;60269;52.502;16.732;2022-08-19T06:18:45;25.18;64.24
72320;SHT30;60269;52.502;16.732;2022-08-19T06:22:24;25.44;63.29
72320;SHT30;60269;52.502;16.732;2022-08-19T06:26:17;25.71;62.61
72320;SHT30;60269;52.502;16.732;2022-08-19T06:29:55;26.09;61.38
72320;SHT30;60269;52.502;16.732;2022-08-19T06:33:53;26.40;60.11
72320;SHT30;60269;52.502;16.732;2022-08-19T06:37:53;26.79;59.04
72320;SHT30;60269;52.502;16.732;2022-08-19T06:41:43;27.08;58.07
72320;SHT30;60269;52.502;16.732;2022-08-19T06:45:37;27.24;57.91
72320;SHT30;60269;52.502;16.732;2022-08-19T06:49:25;27.17;57.70
72320;SHT30;60269;52.502;16.732;2022-08-19T06:53:17;26.56;59.49
72320;SHT30;60269;52.502;16.732;2022-08-19T06:57:06;26.90;58.59
72320;SHT30;60269;52.502;16.732;2022-08-19T07:00:53;27.72;56.30
72320;SHT30;60269;52.502;16.732;2022-08-19T07:04:44;28.00;55.33
72320;SHT30;60269;52.502;16.732;2022-08-19T07:08:36;27.78;55.91
72320;SHT30;60269;52.502;16.732;2022-08-19T07:12:22;27.61;56.34
72320;SHT30;60269;52.502;16.732;2022-08-19T07:16:16;28.13;55.17
72320;SHT30;60269;52.502;16.732;2022-08-19T07:20:07;27.96;55.02
72320;SHT30;60269;52.502;16.732;2022-08-19T07:24:05;28.21;54.86
72320;SHT30;60269;52.502;16.732;2022-08-19T07:27:51;28.43;54.20
72320;SHT30;60269;52.502;16.732;2022-08-19T07:31:42;28.14;54.93
72320;SHT30;60269;52.502;16.732;2022-08-19T07:35:29;28.55;53.40
72320;SHT30;60269;52.502;16.732;2022-08-19T07:39:30;28.88;52.92
72320;SHT30;60269;52.502;16.732;2022-08-19T07:43:09;28.50;53.56
72320;SHT30;60269;52.502;16.732;2022-08-19T07:47:07;29.02;52.60
72320;SHT30;60269;52.502;16.732;2022-08-19T07:51:07;29.08;52.77
72320;SHT30;60269;52.502;16.732;2022-08-19T07:55:13;28.85;52.78
72320;SHT30;60269;52.502;16.732;2022-08-19T07:59:21;28.82;52.56
72320;SHT30;60269;52.502;16.732;2022-08-19T08:02:59;29.20;51.67
72320;SHT30;60269;52.502;16.732;2022-08-19T08:06:51;28.50;53.36
72320;SHT30;60269;52.502;16.732;2022-08-19T08:10:48;28.98;52.16
72320;SHT30;60269;52.502;16.732;2022-08-19T08:14:54;28.71;53.46
72320;SHT30;60269;52.502;16.732;2022-08-19T08:18:33;28.60;53.63
72320;SHT30;60269;52.502;16.732;2022-08-19T08:22:34;29.02;52.75
72320;SHT30;60269;52.502;16.732;2022-08-19T08:26:31;29.36;51.48
72320;SHT30;60269;52.502;16.732;2022-08-19T08:30:35;29.67;51.08
72320;SHT30;60269;52.502;16.732;2022-08-19T08:34:15;30.60;49.12
72320;SHT30;60269;52.502;16.732;2022-08-19T08:38:15;29.37;51.57
72320;SHT30;60269;52.502;16.732;2022-08-19T08:42:01;29.20;52.50
72320;SHT30;60269;52.502;16.732;2022-08-19T08:46:13;29.00;53.43
72320;SHT30;60269;52.502;16.732;2022-08-19T08:54:02;30.09;49.90
72320;SHT30;60269;52.502;16.732;2022-08-19T08:58:06;30.49;49.17
72320;SHT30;60269;52.502;16.732;2022-08-19T09:02:08;30.93;48.21
72320;SHT30;60269;52.502;16.732;2022-08-19T09:05:58;30.59;48.78
72320;SHT30;60269;52.502;16.732;2022-08-19T09:10:07;30.63;48.53
72320;SHT30;60269;52.502;16.732;2022-08-19T09:14:37;30.31;49.37
72320;SHT30;60269;52.502;16.732;2022-08-19T09:18:22;30.04;50.61
72320;SHT30;60269;52.502;16.732;2022-08-19T09:22:22;30.26;50.24
72320;SHT30;60269;52.502;16.732;2022-08-19T09:26:15;30.16;50.76
72320;SHT30;60269;52.502;16.732;2022-08-19T09:29:59;30.16;50.44
72320;SHT30;60269;52.502;16.732;2022-08-19T09:33:46;29.95;50.79
72320;SHT30;60269;52.502;16.732;2022-08-19T09:37:42;30.02;50.60
72320;SHT30;60269;52.502;16.732;2022-08-19T09:41:34;30.14;50.56
72320;SHT30;60269;52.502;16.732;2022-08-19T09:45:25;30.29;49.77
72320;SHT30;60269;52.502;16.732;2022-08-19T09:49:11;31.07;48.70
72320;SHT30;60269;52.502;16.732;2022-08-19T09:53:02;31.70;47.13
72320;SHT30;60269;52.502;16.732;2022-08-19T09:56:48;31.34;46.65
72320;SHT30;60269;52.502;16.732;2022-08-19T10:00:41;32.09;45.18
72320;SHT30;60269;52.502;16.732;2022-08-19T10:04:20;31.68;45.78
72320;SHT30;60269;52.502;16.732;2022-08-19T10:08:34;31.61;46.80
72320;SHT30;60269;52.502;16.732;2022-08-19T10:12:13;31.57;46.07
72320;SHT30;60269;52.502;16.732;2022-08-19T10:16:11;31.94;46.12
72320;SHT30;60269;52.502;16.732;2022-08-19T10:19:56;31.82;44.79
72320;SHT30;60269;52.502;16.732;2022-08-19T10:23:44;32.10;45.36
72320;SHT30;60269;52.502;16.732;2022-08-19T10:27:30;31.99;42.81
72320;SHT30;60269;52.502;16.732;2022-08-19T10:31:30;32.41;42.46
72320;SHT30;60269;52.502;16.732;2022-08-19T10:35:28;32.64;42.44
72320;SHT30;60269;52.502;16.732;2022-08-19T10:39:40;32.57;41.94
72320;SHT30;60269;52.502;16.732;2022-08-19T10:43:22;32.26;43.03
72320;SHT30;60269;52.502;16.732;2022-08-19T10:47:22;33.13;41.89
72320;SHT30;60269;52.502;16.732;2022-08-19T10:51:21;34.27;39.74
72320;SHT30;60269;52.502;16.732;2022-08-19T10:55:23;34.31;39.67
72320;SHT30;60269;52.502;16.732;2022-08-19T10:59:39;32.95;41.74
72320;SHT30;60269;52.502;16.732;2022-08-19T11:03:18;33.12;42.00
72320;SHT30;60269;52.502;16.732;2022-08-19T11:07:09;33.02;41.25
72320;SHT30;60269;52.502;16.732;2022-08-19T11:10:51;33.23;41.19
72320;SHT30;60269;52.502;16.732;2022-08-19T11:14:51;33.32;41.05
72320;SHT30;60269;52.502;16.732;2022-08-19T11:18:53;33.94;40.62
72320;SHT30;60269;52.502;16.732;2022-08-19T11:22:32;33.88;39.77
72320;SHT30;60269;52.502;16.732;2022-08-19T11:26:34;34.28;39.17
72320;SHT30;60269;52.502;16.732;2022-08-19T11:30:13;34.34;38.83
72320;SHT30;60269;52.502;16.732;2022-08-19T11:34:07;35.92;36.64
72320;SHT30;60269;52.502;16.732;2022-08-19T11:37:53;36.28;35.81
72320;SHT30;60269;52.502;16.732;2022-08-19T11:41:39;34.63;36.37
72320;SHT30;60269;52.502;16.732;2022-08-19T11:45:27;33.77;38.33
72320;SHT30;60269;52.502;16.732;2022-08-19T11:49:19;33.60;38.50
72320;SHT30;60269;52.502;16.732;2022-08-19T11:52:59;33.96;37.67
72320;SHT30;60269;52.502;16.732;2022-08-19T11:56:50;34.14;37.99
72320;SHT30;60269;52.502;16.732;2022-08-19T12:00:29;34.35;37.56
72320;SHT30;60269;52.502;16.732;2022-08-19T12:04:21;34.14;37.80
72320;SHT30;60269;52.502;16.732;2022-08-19T12:08:07;33.13;39.87
72320;SHT30;60269;52.502;16.732;2022-08-19T12:12:00;33.63;39.36
72320;SHT30;60269;52.502;16.732;2022-08-19T12:15:47;33.03;40.32
72320;SHT30;60269;52.502;16.732;2022-08-19T12:19:31;33.15;39.99
72320;SHT30;60269;52.502;16.732;2022-08-19T12:23:18;33.23;40.22
72320;SHT30;60269;52.502;16.732;2022-08-19T12:27:09;34.04;39.38
72320;SHT30;60269;52.502;16.732;2022-08-19T12:34:39;34.34;39.11
72320;SHT30;60269;52.502;16.732;2022-08-19T12:38:39;33.60;40.87
72320;SHT30;60269;52.502;16.732;2022-08-19T12:42:18;33.33;41.24
72320;SHT30;60269;52.502;16.732;2022-08-19T12:46:18;32.67;42.33
72320;SHT30;60269;52.502;16.732;2022-08-19T12:50:18;33.45;41.36
72320;SHT30;60269;52.502;16.732;2022-08-19T12:53:56;32.88;42.10
72320;SHT30;60269;52.502;16.732;2022-08-19T12:57:54;31.80;44.57
72320;SHT30;60269;52.502;16.732;2022-08-19T13:01:33;31.45;44.88
72320;SHT30;60269;52.502;16.732;2022-08-19T13:05:30;31.42;44.75
72320;SHT30;60269;52.502;16.732;2022-08-19T13:09:08;31.65;44.01
72320;SHT30;60269;52.502;16.732;2022-08-19T13:13:03;32.99;41.78
72320;SHT30;60269;52.502;16.732;2022-08-19T13:16:43;32.40;42.91
72320;SHT30;60269;52.502;16.732;2022-08-19T13:20:35;31.58;44.00
72320;SHT30;60269;52.502;16.732;2022-08-19T13:24:23;31.39;44.69
72320;SHT30;60269;52.502;16.732;2022-08-19T13:28:23;31.01;44.71
72320;SHT30;60269;52.502;16.732;2022-08-19T13:32:06;30.98;44.99
72320;SHT30;60269;52.502;16.732;2022-08-19T13:36:03;30.84;45.37
72320;SHT30;60269;52.502;16.732;2022-08-19T13:39:54;31.46;43.93
72320;SHT30;60269;52.502;16.732;2022-08-19T13:43:40;31.59;43.75
72320;SHT30;60269;52.502;16.732;2022-08-19T13:47:24;31.03;45.29
72320;SHT30;60269;52.502;16.732;2022-08-19T13:51:11;31.03;45.71
72320;SHT30;60269;52.502;16.732;2022-08-19T13:55:03;31.06;45.48
72320;SHT30;60269;52.502;16.732;2022-08-19T13:58:42;31.45;45.18
72320;SHT30;60269;52.502;16.732;2022-08-19T14:02:38;31.96;44.14
72320;SHT30;60269;52.502;16.732;2022-08-19T14:06:17;31.68;44.62
72320;SHT30;60269;52.502;16.732;2022-08-19T14:10:11;32.02;44.00
72320;SHT30;60269;52.502;16.732;2022-08-19T14:13:50;32.16;43.60
72320;SHT30;60269;52.502;16.732;2022-08-19T14:17:44;32.02;44.22
72320;SHT30;60269;52.502;16.732;2022-08-19T14:21:29;31.90;44.31
72320;SHT30;60269;52.502;16.732;2022-08-19T14:25:25;32.71;42.28
72320;SHT30;60269;52.502;16.732;2022-08-19T14:29:04;32.91;42.45
72320;SHT30;60269;52.502;16.732;2022-08-19T14:33:04;32.85;41.99
72320;SHT30;60269;52.502;16.732;2022-08-19T14:36:43;32.30;43.34
72320;SHT30;60269;52.502;16.732;2022-08-19T14:40:35;32.24;43.27
72320;SHT30;60269;52.502;16.732;2022-08-19T14:44:13;31.94;44.21
72320;SHT30;60269;52.502;16.732;2022-08-19T14:48:12;32.43;43.17
72320;SHT30;60269;52.502;16.732;2022-08-19T14:52:12;31.68;44.07
72320;SHT30;60269;52.502;16.732;2022-08-19T14:55:51;31.45;44.43
72320;SHT30;60269;52.502;16.732;2022-08-19T14:59:49;31.58;44.83
72320;SHT30;60269;52.502;16.732;2022-08-19T15:03:29;31.42;44.67
72320;SHT30;60269;52.502;16.732;2022-08-19T15:07:21;31.32;45.37
72320;SHT30;60269;52.502;16.732;2022-08-19T15:11:00;30.42;46.69
72320;SHT30;60269;52.502;16.732;2022-08-19T15:14:47;30.11;47.83
72320;SHT30;60269;52.502;16.732;2022-08-19T15:18:35;29.74;48.45
72320;SHT30;60269;52.502;16.732;2022-08-19T15:22:15;29.70;48.52
72320;SHT30;60269;52.502;16.732;2022-08-19T15:26:10;29.73;48.65
72320;SHT30;60269;52.502;16.732;2022-08-19T15:29:56;29.58;49.12
72320;SHT30;60269;52.502;16.732;2022-08-19T15:33:40;29.39;49.55
72320;SHT30;60269;52.502;16.732;2022-08-19T15:37:29;29.18;49.89
72320;SHT30;60269;52.502;16.732;2022-08-19T15:41:23;29.20;50.15
72320;SHT30;60269;52.502;16.732;2022-08-19T15:45:12;29.16;50.36
72320;SHT30;60269;52.502;16.732;2022-08-19T15:49:10;29.00;51.03
72320;SHT30;60269;52.502;16.732;2022-08-19T15:53:01;28.88;51.70
72320;SHT30;60269;52.502;16.732;2022-08-19T15:56:48;28.83;51.72
72320;SHT30;60269;52.502;16.732;2022-08-19T16:00:55;28.68;52.86
72320;SHT30;60269;52.502;16.732;2022-08-19T16:05:08;28.50;54.02
72320;SHT30;60269;52.502;16.732;2022-08-19T16:09:14;28.36;54.42
72320;SHT30;60269;52.502;16.732;2022-08-19T16:13:06;28.39;54.65
72320;SHT30;60269;52.502;16.732;2022-08-19T16:16:54;28.24;54.99
72320;SHT30;60269;52.502;16.732;2022-08-19T16:20:45;28.10;55.19
72320;SHT30;60269;52.502;16.732;2022-08-19T16:24:31;27.93;55.60
72320;SHT30;60269;52.502;16.732;2022-08-19T16:28:15;27.97;55.69
72320;SHT30;60269;52.502;16.732;2022-08-19T16:32:03;27.86;55.51
72320;SHT30;60269;52.502;16.732;2022-08-19T16:35:56;27.72;55.48
72320;SHT30;60269;52.502;16.732;2022-08-19T16:39:45;27.62;55.70
72320;SHT30;60269;52.502;16.732;2022-08-19T16:43:30;27.63;55.76
72320;SHT30;60269;52.502;16.732;2022-08-19T16:47:16;27.58;56.42
72320;SHT30;60269;52.502;16.732;2022-08-19T16:51:09;27.44;57.26
72320;SHT30;60269;52.502;16.732;2022-08-19T16:54:47;27.23;57.97
72320;SHT30;60269;52.502;16.732;2022-08-19T16:58:39;27.12;58.31
72320;SHT30;60269;52.502;16.732;2022-08-19T17:02:24;26.97;58.44
72320;SHT30;60269;52.502;16.732;2022-08-19T17:06:14;26.96;58.35
72320;SHT30;60269;52.502;16.732;2022-08-19T17:10:02;26.87;58.65
72320;SHT30;60269;52.502;16.732;2022-08-19T17:13:54;26.77;58.85
72320;SHT30;60269;52.502;16.732;2022-08-19T17:17:33;26.64;59.43
72320;SHT30;60269;52.502;16.732;2022-08-19T17:21:28;26.49;59.88
72320;SHT30;60269;52.502;16.732;2022-08-19T17:25:14;26.38;60.25
72320;SHT30;60269;52.502;16.732;2022-08-19T17:29:06;26.31;60.61
72320;SHT30;60269;52.502;16.732;2022-08-19T17:32:44;26.17;60.70
72320;SHT30;60269;52.502;16.732;2022-08-19T17:36:36;26.06;61.04
72320;SHT30;60269;52.502;16.732;2022-08-19T17:40:22;25.94;61.59
72320;SHT30;60269;52.502;16.732;2022-08-19T17:44:14;25.91;61.92
72320;SHT30;60269;52.502;16.732;2022-08-19T17:47:53;25.87;62.28
72320;SHT30;60269;52.502;16.732;2022-08-19T17:51:45;25.77;62.71
72320;SHT30;60269;52.502;16.732;2022-08-19T17:55:31;25.70;62.95
72320;SHT30;60269;52.502;16.732;2022-08-19T17:59:17;25.64;63.18
72320;SHT30;60269;52.502;16.732;2022-08-19T18:03:07;25.59;63.48
72320;SHT30;60269;52.502;16.732;2022-08-19T18:06:59;25.54;63.81
72320;SHT30;60269;52.502;16.732;2022-08-19T18:10:48;25.53;63.99
72320;SHT30;60269;52.502;16.732;2022-08-19T18:14:35;25.49;64.39
72320;SHT30;60269;52.502;16.732;2022-08-19T18:18:20;25.40;64.68
72320;SHT30;60269;52.502;16.732;2022-08-19T18:22:26;25.37;64.97
72320;SHT30;60269;52.502;16.732;2022-08-19T18:26:04;25.29;65.25
72320;SHT30;60269;52.502;16.732;2022-08-19T18:29:56;25.20;65.72
72320;SHT30;60269;52.502;16.732;2022-08-19T18:33:43;25.05;66.18
72320;SHT30;60269;52.502;16.732;2022-08-19T18:37:42;24.91;66.70
72320;SHT30;60269;52.502;16.732;2022-08-19T18:41:28;24.82;67.14
72320;SHT30;60269;52.502;16.732;2022-08-19T18:45:39;24.84;67.18
72320;SHT30;60269;52.502;16.732;2022-08-19T18:49:44;24.72;67.59
72320;SHT30;60269;52.502;16.732;2022-08-19T18:53:33;24.54;67.94
72320;SHT30;60269;52.502;16.732;2022-08-19T18:57:18;24.54;68.30
72320;SHT30;60269;52.502;16.732;2022-08-19T19:01:13;24.53;68.47
72320;SHT30;60269;52.502;16.732;2022-08-19T19:04:59;24.46;68.77
72320;SHT30;60269;52.502;16.732;2022-08-19T19:08:45;24.44;69.00
72320;SHT30;60269;52.502;16.732;2022-08-19T19:12:34;24.44;69.15
72320;SHT30;60269;52.502;16.732;2022-08-19T19:16:36;24.44;69.25
72320;SHT30;60269;52.502;16.732;2022-08-19T19:20:36;24.44;69.43
72320;SHT30;60269;52.502;16.732;2022-08-19T19:24:36;24.36;69.78
72320;SHT30;60269;52.502;16.732;2022-08-19T19:28:14;24.27;70.10
72320;SHT30;60269;52.502;16.732;2022-08-19T19:32:19;24.21;70.40
72320;SHT30;60269;52.502;16.732;2022-08-19T19:35:57;24.18;70.69
72320;SHT30;60269;52.502;16.732;2022-08-19T19:39:56;24.21;70.78
72320;SHT30;60269;52.502;16.732;2022-08-19T19:43:34;24.14;70.95
72320;SHT30;60269;52.502;16.732;2022-08-19T19:47:48;24.12;71.17
72320;SHT30;60269;52.502;16.732;2022-08-19T19:51:48;24.09;71.31
72320;SHT30;60269;52.502;16.732;2022-08-19T19:55:47;24.06;71.50
72320;SHT30;60269;52.502;16.732;2022-08-19T19:59:25;23.97;71.83
72320;SHT30;60269;52.502;16.732;2022-08-19T20:03:35;23.99;71.94
72320;SHT30;60269;52.502;16.732;2022-08-19T20:07:34;23.93;72.19
72320;SHT30;60269;52.502;16.732;2022-08-19T20:11:43;23.89;72.51
72320;SHT30;60269;52.502;16.732;2022-08-19T20:15:42;23.83;72.72
72320;SHT30;60269;52.502;16.732;2022-08-19T20:19:24;23.82;73.01
72320;SHT30;60269;52.502;16.732;2022-08-19T20:23:28;23.79;73.08
72320;SHT30;60269;52.502;16.732;2022-08-19T20:27:40;23.80;73.14
72320;SHT30;60269;52.502;16.732;2022-08-19T20:31:26;23.76;73.42
72320;SHT30;60269;52.502;16.732;2022-08-19T20:35:25;23.78;73.46
72320;SHT30;60269;52.502;16.732;2022-08-19T20:39:24;23.73;73.56
72320;SHT30;60269;52.502;16.732;2022-08-19T20:43:23;23.69;73.86
72320;SHT30;60269;52.502;16.732;2022-08-19T20:47:01;23.69;73.98
72320;SHT30;60269;52.502;16.732;2022-08-19T20:51:00;23.69;74.02
72320;SHT30;60269;52.502;16.732;2022-08-19T20:54:59;23.66;74.21
72320;SHT30;60269;52.502;16.732;2022-08-19T20:59:00;23.62;74.50
72320;SHT30;60269;52.502;16.732;2022-08-19T21:02:41;23.59;74.67
72320;SHT30;60269;52.502;16.732;2022-08-19T21:06:41;23.62;74.70
72320;SHT30;60269;52.502;16.732;2022-08-19T21:10:19;23.62;74.77
72320;SHT30;60269;52.502;16.732;2022-08-19T21:14:18;23.61;75.86
72320;SHT30;60269;52.502;16.732;2022-08-19T21:18:19;23.21;78.51
72320;SHT30;60269;52.502;16.732;2022-08-19T21:22:05;22.74;80.47
72320;SHT30;60269;52.502;16.732;2022-08-19T21:26:04;22.59;81.69
72320;SHT30;60269;52.502;16.732;2022-08-19T21:29:42;22.49;81.84
72320;SHT30;60269;52.502;16.732;2022-08-19T21:33:37;22.49;82.17
72320;SHT30;60269;52.502;16.732;2022-08-19T21:37:16;22.48;82.45
72320;SHT30;60269;52.502;16.732;2022-08-19T21:41:15;22.51;82.45
72320;SHT30;60269;52.502;16.732;2022-08-19T21:45:14;22.49;82.75
72320;SHT30;60269;52.502;16.732;2022-08-19T21:48:54;22.53;82.71
72320;SHT30;60269;52.502;16.732;2022-08-19T21:52:53;22.43;83.75
72320;SHT30;60269;52.502;16.732;2022-08-19T21:56:55;22.28;83.53
72320;SHT30;60269;52.502;16.732;2022-08-19T22:00:41;22.12;85.09
72320;SHT30;60269;52.502;16.732;2022-08-19T22:04:40;22.02;85.41
72320;SHT30;60269;52.502;16.732;2022-08-19T22:08:18;22.00;86.13
72320;SHT30;60269;52.502;16.732;2022-08-19T22:12:28;21.93;85.91
72320;SHT30;60269;52.502;16.732;2022-08-19T22:16:08;21.95;85.42
72320;SHT30;60269;52.502;16.732;2022-08-19T22:20:12;21.97;85.50
72320;SHT30;60269;52.502;16.732;2022-08-19T22:23:57;21.94;86.23
72320;SHT30;60269;52.502;16.732;2022-08-19T22:27:49;21.88;86.53
72320;SHT30;60269;52.502;16.732;2022-08-19T22:31:28;21.88;86.48
72320;SHT30;60269;52.502;16.732;2022-08-19T22:35:22;21.88;86.30
72320;SHT30;60269;52.502;16.732;2022-08-19T22:39:02;21.93;85.73
72320;SHT30;60269;52.502;16.732;2022-08-19T22:43:05;21.95;85.91
72320;SHT30;60269;52.502;16.732;2022-08-19T22:46:50;21.88;86.37
72320;SHT30;60269;52.502;16.732;2022-08-19T22:50:36;21.77;86.96
72320;SHT30;60269;52.502;16.732;2022-08-19T22:54:22;21.76;87.11
72320;SHT30;60269;52.502;16.732;2022-08-19T22:58:14;21.76;86.96
72320;SHT30;60269;52.502;16.732;2022-08-19T23:02:06;21.73;87.18
72320;SHT30;60269;52.502;16.732;2022-08-19T23:05:51;21.63;87.29
72320;SHT30;60269;52.502;16.732;2022-08-19T23:09:36;21.60;87.76
72320;SHT30;60269;52.502;16.732;2022-08-19T23:13:28;21.56;87.66
72320;SHT30;60269;52.502;16.732;2022-08-19T23:17:15;21.57;87.65
72320;SHT30;60269;52.502;16.732;2022-08-19T23:21:07;21.61;87.49
72320;SHT30;60269;52.502;16.732;2022-08-19T23:24:53;21.61;87.35
72320;SHT30;60269;52.502;16.732;2022-08-19T23:28:38;21.56;87.51
72320;SHT30;60269;52.502;16.732;2022-08-19T23:32:41;21.50;87.73
72320;SHT30;60269;52.502;16.732;2022-08-19T23:36:33;21.45;87.97
72320;SHT30;60269;52.502;16.732;2022-08-19T23:40:19;21.46;87.88
72320;SHT30;60269;52.502;16.732;2022-08-19T23:44:04;21.71;87.28
72320;SHT30;60269;52.502;16.732;2022-08-19T23:47:53;21.85;86.29
72320;SHT30;60269;52.502;16.732;2022-08-19T23:51:40;21.77;86.52
72320;SHT30;60269;52.502;16.732;2022-08-19T23:55:32;21.90;86.56
72320;SHT30;60269;52.502;16.732;2022-08-19T23:59:24;21.90;86.27
